Airfield :
LOGIN :

Register | Disclaimer

   EN    FR    IT 

 










Legend :    VFR   Marginal VFR   IFR   Intensive IFR   Very Intensive IFR
Visi :
Ceiling :
>= 8 km
>= 3000ft
5 to 8 km
1000 to 3000 ft
1500m to 5 km
500 to 1000 ft
800 to 1500m
200 to 500 ft
< 800m
< 200 ft
Symbols :   Thunderstorms  Fog  Heavy snow  Heavy precipitations  Wind > 20 kt
SIGMETs :     Misc.  Thunderstorms  Icing  Turbulence  Mountain Waves  Volcanic Ashes






- Airport Elevation : 44 ft
- IATA code : SOU


EGHI - Southampton

CURRENT METAR :
  • 171120Z 32011KT 290V010 9999 SCT035 11/00 Q1016

EXPIRED METARs :
  • 171050Z 32010G20KT 280V020 9999 SCT036 11/02 Q1017
  • 171020Z 32011KT 290V010 9999 SCT035 10/01 Q1017
  • 170950Z 34011KT 280V020 9999 SCT030 10/01 Q1017
  • 170920Z 32013KT 290V360 9999 SCT030 09/02 Q1017
  • 170850Z 32011G21KT 260V010 9999 FEW029 09/02 Q1017
  • 170820Z 32010KT 280V360 9999 FEW028 09/02 Q1017
  • 170750Z 31009KT 270V010 9999 FEW024 09/02 Q1018
  • 170720Z 32008KT 290V350 9999 FEW025 08/04 Q1018
  • 170650Z 30005KT 260V330 9999 FEW044 07/04 Q1018

TAF TAF EGHI
Valid from the 17 at 12:00 until the 17 at 21:00 UTC


171057Z 1712/1721 32009KT 9999 SCT035
ATIS : +44 23 8062 7103



MET'MAP, your aeronautical weather chart ! - Copyright ORBIFLY December 2007 - Disclaimer

ORBIFLY MET'MAP TEAM :

Programming & Development : Alexandra Zaïnal
Original concept : Baudouin d'Aumeries
Technical & hardware support : Manuel Goepfert
Assistance : Marc-Olivier Méhu




SOURCES & CREDITS :

   NOAA